Moritz — AEEC — position and weather

sailwx.info

Track history (hours):
 
Tides and Currents Weather Stations Pressure Air Temp Water Temp Dewpoint Dewpoint Depression Visibility Wind Speed Wind Dir Waves Ship Positions

Moritz

Last reported at 2017-Sep-20 18:31 UTC. Time now 2017-Sep-24 10:19 UTC.
Position N 40°41' W 074°04'.

Length 18 m.

Type: Ship. MMSI: 366999444.

Date/timePositionNaut miles runAvg speedWind from/ knotsBaromVisibWave heightAir tempDewpointWater temp
2017-Sep-20 18:31N 40°41' W 074°04'0 4.9
2017-Sep-20 18:30N 40°41' W 074°04'510.5
2017-Sep-20 18:00N 40°36' W 074°03'3 5.9
2017-Sep-20 17:30N 40°33' W 074°01'713.5
2017-Sep-20 17:00N 40°40' W 074°03'5 9.5
2017-Sep-20 16:30N 40°44' W 074°01'1 0.4
2017-Sep-20 14:00N 40°45' W 074°01'3 6.3
2017-Sep-20 13:30N 40°48' W 073°59'2 5.0
2017-Sep-20 13:01N 40°46' W 074°01'510.3
2017-Sep-20 12:30N 40°41' W 074°03'1 2.4
2017-Sep-20 12:01N 40°41' W 074°04'0 0.0
2017-Sep-20 11:31N 40°41' W 074°04'0 0.0
2017-Sep-19 22:30N 40°41' W 074°04'0 0.0
2017-Sep-19 22:00N 40°41' W 074°04'0 0.0
2017-Sep-19 21:30N 40°41' W 074°04'0 0.0
2017-Sep-18 18:35N 40°41' W 074°04'0 0.1
2017-Sep-18 18:30N 40°41' W 074°04'1 2.0
2017-Sep-18 18:00N 40°40' W 074°05'3 1.1
2017-Sep-18 15:37N 40°39' W 074°02'0 1.2
2017-Sep-18 15:30N 40°39' W 074°02'811.3
2017-Sep-18 14:46N 40°31' W 074°03'3 9.7
2017-Sep-18 14:30N 40°33' W 074°02'4 8.9
2017-Sep-18 14:01N 40°38' W 074°03'3 6.9
2017-Sep-18 13:30N 40°41' W 074°04'  
2017-Sep-15 22:45N 40°41' W 074°04'0 0.0
2017-Sep-15 22:30N 40°41' W 074°04'0 0.0
2017-Sep-15 22:00N 40°41' W 074°04'0 0.0
2017-Sep-15 21:30N 40°41' W 074°04'0 0.0
2017-Sep-15 17:33N 40°41' W 074°04'0 9.3
2017-Sep-15 17:30N 40°41' W 074°04'3 0.5
2017-Sep-15 12:44N 40°40' W 074°00'2 7.1
2017-Sep-15 12:31N 40°40' W 074°03'2 3.5
2017-Sep-15 12:00N 40°41' W 074°04'0 0.0
2017-Sep-14 18:42N 40°41' W 074°04'315.8
2017-Sep-14 18:30N 40°43' W 074°02'510.4
2017-Sep-14 18:00N 40°48' W 073°59'4 8.8
2017-Sep-14 17:30N 40°52' W 073°56'0 0.2
2017-Sep-14 17:00N 40°52' W 073°57'7 1.8
2017-Sep-14 13:13N 40°46' W 074°01'0 0.9
2017-Sep-14 13:01N 40°46' W 074°01'2 3.1
2017-Sep-14 12:30N 40°47' W 073°60'611.6
2017-Sep-14 12:01N 40°42' W 074°02'2 0.1
2017-Sep-13 18:55N 40°41' W 074°04'0 0.0
2017-Sep-13 18:30N 40°41' W 074°04'0 0.0
2017-Sep-13 18:00N 40°41' W 074°04'0 0.0
2017-Sep-13 17:30N 40°41' W 074°04'0 0.0
2017-Sep-13 17:00N 40°41' W 074°04'0 0.0
2017-Sep-13 16:30N 40°41' W 074°04'0 0.0
2017-Sep-13 16:00N 40°41' W 074°04'0 0.0
2017-Sep-13 15:30N 40°41' W 074°04'0 0.0
2017-Sep-13 15:00N 40°41' W 074°04'510.0
2017-Sep-13 14:30N 40°45' W 074°01'3 6.6
2017-Sep-13 14:00N 40°42' W 074°02'4 8.2
2017-Sep-13 13:30N 40°38' W 074°03'4 8.6
2017-Sep-13 13:01N 40°34' W 074°02'1 2.1
2017-Sep-13 12:30N 40°34' W 074°01'611.2
2017-Sep-13 12:00N 40°39' W 074°03'2 4.2
2017-Sep-13 11:30N 40°41' W 074°04'0 0.0
2017-Sep-12 18:47N 40°41' W 074°04'311.6
2017-Sep-12 18:30N 40°43' W 074°01'714.5
2017-Sep-12 18:00N 40°50' W 073°58'3 6.1
2017-Sep-12 17:30N 40°53' W 073°56'611.9
2017-Sep-12 17:00N 40°47' W 073°60'4 2.0
2017-Sep-12 15:10N 40°44' W 074°02'0 0.0
2017-Sep-12 15:00N 40°44' W 074°02'1 1.7
2017-Sep-12 14:30N 40°43' W 074°02'5 9.8
2017-Sep-12 14:00N 40°39' W 074°03'510.9
2017-Sep-12 13:30N 40°33' W 074°02'4 8.8
2017-Sep-12 13:00N 40°29' W 073°59'3 5.4
2017-Sep-12 12:27N 40°31' W 074°03'716.4
2017-Sep-12 12:00N 40°38' W 074°03'  
Track history (hours):
 
Tides and Currents Weather Stations Pressure Air Temp Water Temp Dewpoint Dewpoint Depression Visibility Wind Speed Wind Dir Waves Ship Positions

Moritz

Last reported at 2017-Sep-20 18:31 UTC. Time now 2017-Sep-24 10:19 UTC.
Position N 40°41' W 074°04'.

Length 18 m.

Type: Ship. MMSI: 366999444.

Date/timePositionNaut miles runAvg speedWind from/ knotsBaromVisibWave heightAir tempDewpointWater temp
2017-Sep-20 18:31N 40°41' W 074°04'0 4.9
2017-Sep-20 18:30N 40°41' W 074°04'510.5
2017-Sep-20 18:00N 40°36' W 074°03'3 5.9
2017-Sep-20 17:30N 40°33' W 074°01'713.5
2017-Sep-20 17:00N 40°40' W 074°03'5 9.5
2017-Sep-20 16:30N 40°44' W 074°01'1 0.4
2017-Sep-20 14:00N 40°45' W 074°01'3 6.3
2017-Sep-20 13:30N 40°48' W 073°59'2 5.0
2017-Sep-20 13:01N 40°46' W 074°01'510.3
2017-Sep-20 12:30N 40°41' W 074°03'1 2.4
2017-Sep-20 12:01N 40°41' W 074°04'0 0.0
2017-Sep-20 11:31N 40°41' W 074°04'0 0.0
2017-Sep-19 22:30N 40°41' W 074°04'0 0.0
2017-Sep-19 22:00N 40°41' W 074°04'0 0.0
2017-Sep-19 21:30N 40°41' W 074°04'0 0.0
2017-Sep-18 18:35N 40°41' W 074°04'0 0.1
2017-Sep-18 18:30N 40°41' W 074°04'1 2.0
2017-Sep-18 18:00N 40°40' W 074°05'3 1.1
2017-Sep-18 15:37N 40°39' W 074°02'0 1.2
2017-Sep-18 15:30N 40°39' W 074°02'811.3
2017-Sep-18 14:46N 40°31' W 074°03'3 9.7
2017-Sep-18 14:30N 40°33' W 074°02'4 8.9
2017-Sep-18 14:01N 40°38' W 074°03'3 6.9
2017-Sep-18 13:30N 40°41' W 074°04'  
2017-Sep-15 22:45N 40°41' W 074°04'0 0.0
2017-Sep-15 22:30N 40°41' W 074°04'0 0.0
2017-Sep-15 22:00N 40°41' W 074°04'0 0.0
2017-Sep-15 21:30N 40°41' W 074°04'0 0.0
2017-Sep-15 17:33N 40°41' W 074°04'0 9.3
2017-Sep-15 17:30N 40°41' W 074°04'3 0.5
2017-Sep-15 12:44N 40°40' W 074°00'2 7.1
2017-Sep-15 12:31N 40°40' W 074°03'2 3.5
2017-Sep-15 12:00N 40°41' W 074°04'0 0.0
2017-Sep-14 18:42N 40°41' W 074°04'315.8
2017-Sep-14 18:30N 40°43' W 074°02'510.4
2017-Sep-14 18:00N 40°48' W 073°59'4 8.8
2017-Sep-14 17:30N 40°52' W 073°56'0 0.2
2017-Sep-14 17:00N 40°52' W 073°57'7 1.8
2017-Sep-14 13:13N 40°46' W 074°01'0 0.9
2017-Sep-14 13:01N 40°46' W 074°01'2 3.1
2017-Sep-14 12:30N 40°47' W 073°60'611.6
2017-Sep-14 12:01N 40°42' W 074°02'2 0.1
2017-Sep-13 18:55N 40°41' W 074°04'0 0.0
2017-Sep-13 18:30N 40°41' W 074°04'0 0.0
2017-Sep-13 18:00N 40°41' W 074°04'0 0.0
2017-Sep-13 17:30N 40°41' W 074°04'0 0.0
2017-Sep-13 17:00N 40°41' W 074°04'0 0.0
2017-Sep-13 16:30N 40°41' W 074°04'0 0.0
2017-Sep-13 16:00N 40°41' W 074°04'0 0.0
2017-Sep-13 15:30N 40°41' W 074°04'0 0.0
2017-Sep-13 15:00N 40°41' W 074°04'510.0
2017-Sep-13 14:30N 40°45' W 074°01'3 6.6
2017-Sep-13 14:00N 40°42' W 074°02'4 8.2
2017-Sep-13 13:30N 40°38' W 074°03'4 8.6
2017-Sep-13 13:01N 40°34' W 074°02'1 2.1
2017-Sep-13 12:30N 40°34' W 074°01'611.2
2017-Sep-13 12:00N 40°39' W 074°03'2 4.2
2017-Sep-13 11:30N 40°41' W 074°04'0 0.0
2017-Sep-12 18:47N 40°41' W 074°04'311.6
2017-Sep-12 18:30N 40°43' W 074°01'714.5
2017-Sep-12 18:00N 40°50' W 073°58'3 6.1
2017-Sep-12 17:30N 40°53' W 073°56'611.9
2017-Sep-12 17:00N 40°47' W 073°60'4 2.0
2017-Sep-12 15:10N 40°44' W 074°02'0 0.0
2017-Sep-12 15:00N 40°44' W 074°02'1 1.7
2017-Sep-12 14:30N 40°43' W 074°02'5 9.8
2017-Sep-12 14:00N 40°39' W 074°03'510.9
2017-Sep-12 13:30N 40°33' W 074°02'4 8.8
2017-Sep-12 13:00N 40°29' W 073°59'3 5.4
2017-Sep-12 12:27N 40°31' W 074°03'716.4
2017-Sep-12 12:00N 40°38' W 074°03'  

Dump ship's entire track history